sensor_id;sensor_type;location;lat;lon;timestamp;P1;durP1;ratioP1;P2;durP2;ratioP2
36317;SDS011;33920;48.166;8.074;2022-07-10T05:13:35;2.15;;;1.40;;
36317;SDS011;33920;48.166;8.074;2022-07-10T05:16:10;1.67;;;1.20;;
36317;SDS011;33920;48.166;8.074;2022-07-10T05:18:54;2.85;;;1.67;;
36317;SDS011;33920;48.166;8.074;2022-07-10T05:21:20;2.55;;;1.95;;
36317;SDS011;33920;48.166;8.074;2022-07-10T05:23:45;3.38;;;2.40;;
36317;SDS011;33920;48.166;8.074;2022-07-10T05:26:14;2.95;;;2.10;;
36317;SDS011;33920;48.166;8.074;2022-07-10T05:34:09;2.70;;;1.60;;
36317;SDS011;33920;48.166;8.074;2022-07-10T05:53:37;3.00;;;2.03;;
36317;SDS011;33920;48.166;8.074;2022-07-10T05:56:17;3.40;;;1.85;;
36317;SDS011;33920;48.166;8.074;2022-07-10T05:58:50;2.63;;;1.80;;
36317;SDS011;33920;48.166;8.074;2022-07-10T06:03:44;3.42;;;2.58;;
36317;SDS011;33920;48.166;8.074;2022-07-10T06:08:26;2.75;;;1.95;;
36317;SDS011;33920;48.166;8.074;2022-07-10T06:10:52;4.05;;;2.05;;
36317;SDS011;33920;48.166;8.074;2022-07-10T06:13:18;2.78;;;2.05;;
36317;SDS011;33920;48.166;8.074;2022-07-10T06:15:43;3.13;;;1.75;;
36317;SDS011;33920;48.166;8.074;2022-07-10T06:18:09;1.48;;;1.38;;
36317;SDS011;33920;48.166;8.074;2022-07-10T06:20:34;2.35;;;1.70;;
36317;SDS011;33920;48.166;8.074;2022-07-10T06:23:00;3.28;;;1.83;;
36317;SDS011;33920;48.166;8.074;2022-07-10T06:25:26;4.05;;;1.67;;
36317;SDS011;33920;48.166;8.074;2022-07-10T06:28:02;1.50;;;1.38;;
36317;SDS011;33920;48.166;8.074;2022-07-10T06:30:30;2.00;;;1.70;;
36317;SDS011;33920;48.166;8.074;2022-07-10T06:32:56;1.70;;;1.58;;
36317;SDS011;33920;48.166;8.074;2022-07-10T06:35:43;1.92;;;1.60;;
36317;SDS011;33920;48.166;8.074;2022-07-10T06:38:24;3.13;;;1.85;;
36317;SDS011;33920;48.166;8.074;2022-07-10T06:43:21;2.03;;;1.65;;
36317;SDS011;33920;48.166;8.074;2022-07-10T06:45:49;1.88;;;1.60;;
36317;SDS011;33920;48.166;8.074;2022-07-10T06:57:10;4.18;;;1.35;;
36317;SDS011;33920;48.166;8.074;2022-07-10T06:59:36;2.97;;;1.83;;
36317;SDS011;33920;48.166;8.074;2022-07-10T07:02:02;2.40;;;1.92;;
36317;SDS011;33920;48.166;8.074;2022-07-10T07:04:28;2.40;;;1.63;;
36317;SDS011;33920;48.166;8.074;2022-07-10T07:06:56;4.07;;;1.88;;
36317;SDS011;33920;48.166;8.074;2022-07-10T08:00:57;2.75;;;1.40;;
36317;SDS011;33920;48.166;8.074;2022-07-10T08:03:32;1.77;;;1.38;;
36317;SDS011;33920;48.166;8.074;2022-07-10T08:06:04;3.05;;;1.70;;
36317;SDS011;33920;48.166;8.074;2022-07-10T08:14:14;1.63;;;1.42;;
36317;SDS011;33920;48.166;8.074;2022-07-10T08:16:40;2.17;;;1.17;;
36317;SDS011;33920;48.166;8.074;2022-07-10T08:19:05;2.03;;;1.02;;
36317;SDS011;33920;48.166;8.074;2022-07-10T08:30:04;1.60;;;0.98;;
36317;SDS011;33920;48.166;8.074;2022-07-10T08:32:34;2.28;;;1.00;;
36317;SDS011;33920;48.166;8.074;2022-07-10T08:35:08;2.33;;;1.10;;
36317;SDS011;33920;48.166;8.074;2022-07-10T08:37:58;1.30;;;0.93;;
36317;SDS011;33920;48.166;8.074;2022-07-10T08:40:42;1.40;;;0.93;;
36317;SDS011;33920;48.166;8.074;2022-07-10T08:55:28;1.38;;;0.90;;
36317;SDS011;33920;48.166;8.074;2022-07-10T08:58:05;1.90;;;1.45;;
36317;SDS011;33920;48.166;8.074;2022-07-10T09:12:14;2.10;;;0.80;;
36317;SDS011;33920;48.166;8.074;2022-07-10T09:14:42;2.08;;;1.20;;
36317;SDS011;33920;48.166;8.074;2022-07-10T09:17:08;2.08;;;1.00;;
36317;SDS011;33920;48.166;8.074;2022-07-10T09:22:06;1.17;;;0.93;;
36317;SDS011;33920;48.166;8.074;2022-07-10T09:29:29;1.70;;;1.02;;
36317;SDS011;33920;48.166;8.074;2022-07-10T09:36:35;2.58;;;0.80;;
36317;SDS011;33920;48.166;8.074;2022-07-10T09:39:01;1.15;;;0.98;;
36317;SDS011;33920;48.166;8.074;2022-07-10T09:41:28;3.80;;;0.90;;
36317;SDS011;33920;48.166;8.074;2022-07-10T09:46:31;1.60;;;0.88;;
36317;SDS011;33920;48.166;8.074;2022-07-10T09:49:02;2.38;;;0.98;;
36317;SDS011;33920;48.166;8.074;2022-07-10T09:51:30;6.13;;;1.27;;
36317;SDS011;33920;48.166;8.074;2022-07-10T09:54:00;4.65;;;1.25;;
36317;SDS011;33920;48.166;8.074;2022-07-10T09:56:27;2.88;;;1.08;;
36317;SDS011;33920;48.166;8.074;2022-07-10T09:58:59;3.33;;;1.15;;
36317;SDS011;33920;48.166;8.074;2022-07-10T10:01:27;2.63;;;1.30;;
36317;SDS011;33920;48.166;8.074;2022-07-10T10:03:55;4.35;;;1.30;;
36317;SDS011;33920;48.166;8.074;2022-07-10T10:06:26;1.42;;;0.90;;
36317;SDS011;33920;48.166;8.074;2022-07-10T10:12:51;8.73;;;1.30;;
36317;SDS011;33920;48.166;8.074;2022-07-10T10:15:34;4.00;;;0.80;;
36317;SDS011;33920;48.166;8.074;2022-07-10T10:18:03;1.73;;;0.60;;
36317;SDS011;33920;48.166;8.074;2022-07-10T10:20:35;2.03;;;1.05;;
36317;SDS011;33920;48.166;8.074;2022-07-10T10:23:03;4.60;;;1.55;;
36317;SDS011;33920;48.166;8.074;2022-07-10T10:30:31;3.35;;;1.17;;
36317;SDS011;33920;48.166;8.074;2022-07-10T10:39:15;3.08;;;0.93;;
36317;SDS011;33920;48.166;8.074;2022-07-10T10:41:51;1.83;;;0.90;;
36317;SDS011;33920;48.166;8.074;2022-07-10T11:05:50;3.55;;;0.98;;
36317;SDS011;33920;48.166;8.074;2022-07-10T11:32:42;1.40;;;1.05;;
36317;SDS011;33920;48.166;8.074;2022-07-10T11:35:11;1.02;;;0.90;;
36317;SDS011;33920;48.166;8.074;2022-07-10T11:37:50;1.50;;;0.80;;
36317;SDS011;33920;48.166;8.074;2022-07-10T11:42:59;2.03;;;0.90;;
36317;SDS011;33920;48.166;8.074;2022-07-10T11:50:35;0.95;;;0.70;;
36317;SDS011;33920;48.166;8.074;2022-07-10T11:53:39;2.27;;;0.80;;
36317;SDS011;33920;48.166;8.074;2022-07-10T11:56:11;1.48;;;0.88;;
36317;SDS011;33920;48.166;8.074;2022-07-10T11:58:55;2.60;;;1.05;;
36317;SDS011;33920;48.166;8.074;2022-07-10T12:49:40;2.05;;;0.70;;
36317;SDS011;33920;48.166;8.074;2022-07-10T12:53:28;1.48;;;0.70;;
36317;SDS011;33920;48.166;8.074;2022-07-10T12:55:41;1.70;;;0.60;;
36317;SDS011;33920;48.166;8.074;2022-07-10T12:58:29;2.45;;;0.82;;
36317;SDS011;33920;48.166;8.074;2022-07-10T13:00:58;0.98;;;0.70;;
36317;SDS011;33920;48.166;8.074;2022-07-10T13:03:30;2.58;;;0.88;;
36317;SDS011;33920;48.166;8.074;2022-07-10T13:06:05;4.30;;;0.82;;
36317;SDS011;33920;48.166;8.074;2022-07-10T13:11:46;4.40;;;0.90;;
36317;SDS011;33920;48.166;8.074;2022-07-10T13:14:27;0.65;;;0.50;;
36317;SDS011;33920;48.166;8.074;2022-07-10T13:19:47;4.32;;;0.73;;
36317;SDS011;33920;48.166;8.074;2022-07-10T13:30:08;0.82;;;0.60;;
36317;SDS011;33920;48.166;8.074;2022-07-10T13:32:42;2.17;;;0.90;;
36317;SDS011;33920;48.166;8.074;2022-07-10T13:35:38;2.60;;;1.17;;
36317;SDS011;33920;48.166;8.074;2022-07-10T13:38:26;3.13;;;0.50;;
36317;SDS011;33920;48.166;8.074;2022-07-10T13:41:11;2.15;;;0.68;;
36317;SDS011;33920;48.166;8.074;2022-07-10T13:44:10;3.47;;;0.80;;
36317;SDS011;33920;48.166;8.074;2022-07-10T13:46:36;0.77;;;0.40;;
36317;SDS011;33920;48.166;8.074;2022-07-10T13:51:44;1.00;;;0.57;;
36317;SDS011;33920;48.166;8.074;2022-07-10T14:27:08;1.02;;;0.30;;
36317;SDS011;33920;48.166;8.074;2022-07-10T14:37:30;0.88;;;0.75;;
36317;SDS011;33920;48.166;8.074;2022-07-10T14:40:22;4.93;;;0.63;;
36317;SDS011;33920;48.166;8.074;2022-07-10T15:25:54;0.30;;;0.30;;
36317;SDS011;33920;48.166;8.074;2022-07-10T15:28:24;0.98;;;0.43;;
36317;SDS011;33920;48.166;8.074;2022-07-10T15:30:58;3.10;;;0.52;;
36317;SDS011;33920;48.166;8.074;2022-07-10T15:40:23;1.40;;;0.32;;
36317;SDS011;33920;48.166;8.074;2022-07-10T15:42:52;1.40;;;0.65;;
36317;SDS011;33920;48.166;8.074;2022-07-10T15:45:20;1.55;;;0.50;;
36317;SDS011;33920;48.166;8.074;2022-07-10T15:57:57;1.35;;;0.43;;
36317;SDS011;33920;48.166;8.074;2022-07-10T16:03:07;0.52;;;0.40;;
36317;SDS011;33920;48.166;8.074;2022-07-10T16:08:07;2.67;;;0.70;;
36317;SDS011;33920;48.166;8.074;2022-07-10T16:10:33;1.52;;;0.40;;
36317;SDS011;33920;48.166;8.074;2022-07-10T16:13:16;1.23;;;0.47;;
36317;SDS011;33920;48.166;8.074;2022-07-10T16:15:46;0.40;;;0.40;;
36317;SDS011;33920;48.166;8.074;2022-07-10T16:18:14;1.27;;;0.45;;
36317;SDS011;33920;48.166;8.074;2022-07-10T16:20:40;0.30;;;0.30;;
36317;SDS011;33920;48.166;8.074;2022-07-10T16:23:06;0.88;;;0.70;;
36317;SDS011;33920;48.166;8.074;2022-07-10T16:25:41;2.08;;;0.50;;
36317;SDS011;33920;48.166;8.074;2022-07-10T16:28:25;4.55;;;0.45;;
36317;SDS011;33920;48.166;8.074;2022-07-10T16:30:59;2.40;;;0.40;;
36317;SDS011;33920;48.166;8.074;2022-07-10T16:35:47;0.57;;;0.40;;
36317;SDS011;33920;48.166;8.074;2022-07-10T16:38:32;1.02;;;0.68;;
36317;SDS011;33920;48.166;8.074;2022-07-10T16:41:17;1.13;;;0.52;;
36317;SDS011;33920;48.166;8.074;2022-07-10T16:43:50;5.60;;;0.70;;
36317;SDS011;33920;48.166;8.074;2022-07-10T16:46:16;3.17;;;0.47;;
36317;SDS011;33920;48.166;8.074;2022-07-10T16:48:44;1.88;;;0.55;;
36317;SDS011;33920;48.166;8.074;2022-07-10T16:53:44;1.60;;;0.50;;
36317;SDS011;33920;48.166;8.074;2022-07-10T16:56:11;0.75;;;0.40;;
36317;SDS011;33920;48.166;8.074;2022-07-10T16:58:46;2.30;;;0.52;;
36317;SDS011;33920;48.166;8.074;2022-07-10T17:01:14;2.25;;;0.30;;
36317;SDS011;33920;48.166;8.074;2022-07-10T17:03:41;0.90;;;0.43;;
36317;SDS011;33920;48.166;8.074;2022-07-10T17:06:08;1.13;;;0.47;;
36317;SDS011;33920;48.166;8.074;2022-07-10T17:08:34;0.65;;;0.30;;
36317;SDS011;33920;48.166;8.074;2022-07-10T17:11:01;3.78;;;0.52;;
36317;SDS011;33920;48.166;8.074;2022-07-10T17:13:27;1.95;;;0.50;;
36317;SDS011;33920;48.166;8.074;2022-07-10T17:15:53;2.53;;;0.60;;
36317;SDS011;33920;48.166;8.074;2022-07-10T17:20:50;1.23;;;0.50;;
36317;SDS011;33920;48.166;8.074;2022-07-10T17:23:16;4.20;;;0.52;;
36317;SDS011;33920;48.166;8.074;2022-07-10T17:28:06;1.75;;;0.43;;
36317;SDS011;33920;48.166;8.074;2022-07-10T17:30:36;1.48;;;0.50;;
36317;SDS011;33920;48.166;8.074;2022-07-10T17:33:04;1.27;;;0.30;;
36317;SDS011;33920;48.166;8.074;2022-07-10T17:35:32;0.47;;;0.47;;
36317;SDS011;33920;48.166;8.074;2022-07-10T17:37:59;1.38;;;0.63;;
36317;SDS011;33920;48.166;8.074;2022-07-10T17:40:24;0.65;;;0.50;;
36317;SDS011;33920;48.166;8.074;2022-07-10T17:42:50;1.08;;;0.43;;
36317;SDS011;33920;48.166;8.074;2022-07-10T17:45:18;1.42;;;0.32;;
36317;SDS011;33920;48.166;8.074;2022-07-10T17:47:46;1.02;;;0.40;;
36317;SDS011;33920;48.166;8.074;2022-07-10T17:50:13;3.72;;;0.45;;
36317;SDS011;33920;48.166;8.074;2022-07-10T17:52:46;0.17;;;0.17;;
36317;SDS011;33920;48.166;8.074;2022-07-10T17:55:12;2.63;;;0.50;;
36317;SDS011;33920;48.166;8.074;2022-07-10T17:57:43;8.43;;;0.52;;
36317;SDS011;33920;48.166;8.074;2022-07-10T18:00:23;7.97;;;0.68;;
36317;SDS011;33920;48.166;8.074;2022-07-10T18:02:52;2.17;;;0.57;;
36317;SDS011;33920;48.166;8.074;2022-07-10T18:05:18;2.17;;;0.77;;
36317;SDS011;33920;48.166;8.074;2022-07-10T18:07:45;0.75;;;0.40;;
36317;SDS011;33920;48.166;8.074;2022-07-10T18:10:21;1.20;;;0.40;;
36317;SDS011;33920;48.166;8.074;2022-07-10T18:12:47;2.65;;;0.80;;
36317;SDS011;33920;48.166;8.074;2022-07-10T18:15:23;1.85;;;0.52;;
36317;SDS011;33920;48.166;8.074;2022-07-10T18:17:59;5.50;;;0.60;;
36317;SDS011;33920;48.166;8.074;2022-07-10T18:22:52;1.77;;;0.75;;
36317;SDS011;33920;48.166;8.074;2022-07-10T18:25:20;1.60;;;0.52;;
36317;SDS011;33920;48.166;8.074;2022-07-10T18:27:46;0.47;;;0.40;;
36317;SDS011;33920;48.166;8.074;2022-07-10T18:32:57;1.77;;;0.50;;
36317;SDS011;33920;48.166;8.074;2022-07-10T18:35:59;0.95;;;0.50;;
36317;SDS011;33920;48.166;8.074;2022-07-10T18:38:25;1.92;;;0.60;;
36317;SDS011;33920;48.166;8.074;2022-07-10T19:42:13;6.20;;;1.10;;
36317;SDS011;33920;48.166;8.074;2022-07-10T19:49:15;0.82;;;0.63;;
36317;SDS011;33920;48.166;8.074;2022-07-10T20:40:06;3.03;;;0.60;;
36317;SDS011;33920;48.166;8.074;2022-07-10T20:42:47;1.83;;;0.60;;
36317;SDS011;33920;48.166;8.074;2022-07-10T20:45:51;1.48;;;0.50;;
36317;SDS011;33920;48.166;8.074;2022-07-10T20:55:34;0.90;;;0.60;;
36317;SDS011;33920;48.166;8.074;2022-07-10T20:58:00;1.65;;;0.70;;
36317;SDS011;33920;48.166;8.074;2022-07-10T21:00:28;2.17;;;0.60;;
36317;SDS011;33920;48.166;8.074;2022-07-10T21:02:54;0.40;;;0.40;;
36317;SDS011;33920;48.166;8.074;2022-07-10T21:07:52;0.85;;;0.52;;
36317;SDS011;33920;48.166;8.074;2022-07-10T21:10:23;2.08;;;0.90;;
36317;SDS011;33920;48.166;8.074;2022-07-10T21:18:18;0.95;;;0.43;;
36317;SDS011;33920;48.166;8.074;2022-07-10T21:23:10;0.82;;;0.60;;
36317;SDS011;33920;48.166;8.074;2022-07-10T21:25:36;2.78;;;0.85;;
36317;SDS011;33920;48.166;8.074;2022-07-10T21:28:05;1.85;;;0.55;;
36317;SDS011;33920;48.166;8.074;2022-07-10T21:30:31;0.73;;;0.50;;
36317;SDS011;33920;48.166;8.074;2022-07-10T21:33:02;0.85;;;0.65;;
36317;SDS011;33920;48.166;8.074;2022-07-10T21:35:30;0.50;;;0.47;;
36317;SDS011;33920;48.166;8.074;2022-07-10T21:38:00;0.73;;;0.50;;
36317;SDS011;33920;48.166;8.074;2022-07-10T21:40:30;1.08;;;0.77;;
36317;SDS011;33920;48.166;8.074;2022-07-10T21:45:45;1.55;;;0.77;;
36317;SDS011;33920;48.166;8.074;2022-07-10T21:52:14;1.70;;;0.68;;
36317;SDS011;33920;48.166;8.074;2022-07-10T21:54:40;1.33;;;0.60;;
36317;SDS011;33920;48.166;8.074;2022-07-10T22:21:45;0.40;;;0.40;;
36317;SDS011;33920;48.166;8.074;2022-07-10T22:31:34;0.40;;;0.40;;
36317;SDS011;33920;48.166;8.074;2022-07-10T23:07:44;3.40;;;0.50;;
36317;SDS011;33920;48.166;8.074;2022-07-10T23:10:13;1.08;;;0.50;;
36317;SDS011;33920;48.166;8.074;2022-07-10T23:12:52;1.52;;;0.50;;
36317;SDS011;33920;48.166;8.074;2022-07-10T23:26:52;1.42;;;0.80;;
36317;SDS011;33920;48.166;8.074;2022-07-10T23:29:20;1.52;;;0.73;;
36317;SDS011;33920;48.166;8.074;2022-07-10T23:36:39;1.15;;;0.50;;
36317;SDS011;33920;48.166;8.074;2022-07-10T23:39:04;0.57;;;0.57;;
36317;SDS011;33920;48.166;8.074;2022-07-10T23:43:56;1.02;;;0.77;;
36317;SDS011;33920;48.166;8.074;2022-07-10T23:48:43;3.40;;;0.90;;
36317;SDS011;33920;48.166;8.074;2022-07-10T23:51:27;0.68;;;0.63;;
36317;SDS011;33920;48.166;8.074;2022-07-10T23:53:53;1.88;;;0.70;;
36317;SDS011;33920;48.166;8.074;2022-07-10T23:56:18;0.98;;;0.88;;
36317;SDS011;33920;48.166;8.074;2022-07-10T23:58:44;1.17;;;0.68;;
